sensor_id;sensor_type;location;lat;lon;timestamp;pressure;altitude;pressure_sealevel;temperature;humidity
5500;BME280;2772;42.700;23.304;2023-01-29T00:01:47;95230.81;;;2.92;100.00
5500;BME280;2772;42.700;23.304;2023-01-29T00:04:15;95230.72;;;2.82;100.00
5500;BME280;2772;42.700;23.304;2023-01-29T00:06:41;95229.75;;;2.93;100.00
5500;BME280;2772;42.700;23.304;2023-01-29T00:09:08;95232.59;;;2.86;100.00
5500;BME280;2772;42.700;23.304;2023-01-29T00:11:35;95237.56;;;2.83;100.00
5500;BME280;2772;42.700;23.304;2023-01-29T00:14:02;95246.19;;;2.68;100.00
5500;BME280;2772;42.700;23.304;2023-01-29T00:16:29;95244.47;;;2.52;100.00
5500;BME280;2772;42.700;23.304;2023-01-29T00:18:56;95246.59;;;2.55;100.00
5500;BME280;2772;42.700;23.304;2023-01-29T00:21:24;95252.25;;;2.74;100.00
5500;BME280;2772;42.700;23.304;2023-01-29T00:23:50;95251.13;;;2.65;100.00
5500;BME280;2772;42.700;23.304;2023-01-29T00:26:19;95253.13;;;2.48;100.00
5500;BME280;2772;42.700;23.304;2023-01-29T00:28:46;95250.75;;;2.46;100.00
5500;BME280;2772;42.700;23.304;2023-01-29T00:31:15;95254.16;;;2.47;100.00
5500;BME280;2772;42.700;23.304;2023-01-29T00:33:42;95255.97;;;2.41;100.00
5500;BME280;2772;42.700;23.304;2023-01-29T00:36:11;95251.28;;;2.48;100.00
5500;BME280;2772;42.700;23.304;2023-01-29T00:38:39;95253.41;;;2.51;100.00
5500;BME280;2772;42.700;23.304;2023-01-29T00:41:07;95251.06;;;2.55;100.00
5500;BME280;2772;42.700;23.304;2023-01-29T00:43:51;95248.91;;;2.47;100.00
5500;BME280;2772;42.700;23.304;2023-01-29T00:46:36;95248.94;;;2.52;100.00
5500;BME280;2772;42.700;23.304;2023-01-29T00:49:03;95241.97;;;2.72;100.00
5500;BME280;2772;42.700;23.304;2023-01-29T00:51:30;95251.88;;;2.55;100.00
5500;BME280;2772;42.700;23.304;2023-01-29T00:53:58;95252.06;;;2.49;100.00
5500;BME280;2772;42.700;23.304;2023-01-29T00:56:25;95256.75;;;2.42;100.00
5500;BME280;2772;42.700;23.304;2023-01-29T00:58:53;95254.22;;;2.57;100.00
5500;BME280;2772;42.700;23.304;2023-01-29T01:01:22;95249.19;;;2.50;100.00
5500;BME280;2772;42.700;23.304;2023-01-29T01:04:02;95243.97;;;2.55;100.00
5500;BME280;2772;42.700;23.304;2023-01-29T01:06:29;95245.91;;;2.70;100.00
5500;BME280;2772;42.700;23.304;2023-01-29T01:08:57;95242.66;;;2.58;100.00
5500;BME280;2772;42.700;23.304;2023-01-29T01:11:41;95246.78;;;2.44;100.00
5500;BME280;2772;42.700;23.304;2023-01-29T01:14:08;95256.94;;;2.30;100.00
5500;BME280;2772;42.700;23.304;2023-01-29T01:16:35;95249.84;;;2.31;100.00
5500;BME280;2772;42.700;23.304;2023-01-29T01:19:02;95261.16;;;2.05;100.00
5500;BME280;2772;42.700;23.304;2023-01-29T01:21:28;95249.69;;;2.16;100.00
5500;BME280;2772;42.700;23.304;2023-01-29T01:23:55;95250.34;;;2.28;100.00
5500;BME280;2772;42.700;23.304;2023-01-29T01:26:23;95246.16;;;2.32;100.00
5500;BME280;2772;42.700;23.304;2023-01-29T01:28:50;95248.47;;;2.23;100.00
5500;BME280;2772;42.700;23.304;2023-01-29T01:31:16;95243.13;;;2.13;100.00
5500;BME280;2772;42.700;23.304;2023-01-29T01:33:44;95247.91;;;1.90;100.00
5500;BME280;2772;42.700;23.304;2023-01-29T01:36:10;95249.53;;;1.96;100.00
5500;BME280;2772;42.700;23.304;2023-01-29T01:38:38;95256.91;;;1.99;100.00
5500;BME280;2772;42.700;23.304;2023-01-29T01:41:09;95254.09;;;2.05;100.00
5500;BME280;2772;42.700;23.304;2023-01-29T01:43:49;95243.63;;;2.10;100.00
5500;BME280;2772;42.700;23.304;2023-01-29T01:46:16;95250.59;;;1.95;100.00
5500;BME280;2772;42.700;23.304;2023-01-29T01:48:44;95249.28;;;1.97;100.00
5500;BME280;2772;42.700;23.304;2023-01-29T01:51:14;95256.34;;;1.92;100.00
5500;BME280;2772;42.700;23.304;2023-01-29T01:53:43;95257.91;;;1.93;100.00
5500;BME280;2772;42.700;23.304;2023-01-29T01:56:15;95257.59;;;1.89;100.00
5500;BME280;2772;42.700;23.304;2023-01-29T01:58:48;95257.34;;;1.91;100.00
5500;BME280;2772;42.700;23.304;2023-01-29T02:01:16;95252.47;;;1.99;100.00
5500;BME280;2772;42.700;23.304;2023-01-29T02:03:53;95254.88;;;2.06;100.00
5500;BME280;2772;42.700;23.304;2023-01-29T02:06:38;95258.41;;;1.90;100.00
5500;BME280;2772;42.700;23.304;2023-01-29T02:09:26;95260.78;;;1.91;100.00
5500;BME280;2772;42.700;23.304;2023-01-29T02:11:59;95255.38;;;2.03;100.00
5500;BME280;2772;42.700;23.304;2023-01-29T02:14:28;95244.59;;;2.31;100.00
5500;BME280;2772;42.700;23.304;2023-01-29T02:16:56;95250.59;;;2.26;100.00
5500;BME280;2772;42.700;23.304;2023-01-29T02:19:31;95251.75;;;2.09;100.00
5500;BME280;2772;42.700;23.304;2023-01-29T02:22:12;95256.97;;;2.04;100.00
5500;BME280;2772;42.700;23.304;2023-01-29T02:28:27;95259.47;;;1.94;100.00
5500;BME280;2772;42.700;23.304;2023-01-29T02:31:01;95262.78;;;1.79;100.00
5500;BME280;2772;42.700;23.304;2023-01-29T02:33:40;95264.78;;;1.72;100.00
5500;BME280;2772;42.700;23.304;2023-01-29T02:36:16;95262.91;;;1.67;100.00
5500;BME280;2772;42.700;23.304;2023-01-29T02:38:49;95262.75;;;2.06;100.00
5500;BME280;2772;42.700;23.304;2023-01-29T02:41:25;95263.06;;;2.09;100.00
5500;BME280;2772;42.700;23.304;2023-01-29T02:43:58;95263.09;;;2.14;100.00
5500;BME280;2772;42.700;23.304;2023-01-29T02:46:31;95269.84;;;2.05;100.00
5500;BME280;2772;42.700;23.304;2023-01-29T02:49:07;95282.16;;;2.05;100.00
5500;BME280;2772;42.700;23.304;2023-01-29T02:51:39;95272.66;;;1.99;100.00
5500;BME280;2772;42.700;23.304;2023-01-29T02:54:13;95268.78;;;1.80;100.00
5500;BME280;2772;42.700;23.304;2023-01-29T02:56:47;95274.75;;;1.97;100.00
5500;BME280;2772;42.700;23.304;2023-01-29T02:59:21;95270.28;;;1.97;100.00
5500;BME280;2772;42.700;23.304;2023-01-29T03:01:51;95267.59;;;1.92;100.00
5500;BME280;2772;42.700;23.304;2023-01-29T03:04:24;95266.72;;;1.82;100.00
5500;BME280;2772;42.700;23.304;2023-01-29T03:06:55;95271.78;;;1.88;100.00
5500;BME280;2772;42.700;23.304;2023-01-29T03:09:29;95264.97;;;1.87;100.00
5500;BME280;2772;42.700;23.304;2023-01-29T03:12:08;95261.97;;;1.79;100.00
5500;BME280;2772;42.700;23.304;2023-01-29T03:14:55;95261.78;;;1.85;100.00
5500;BME280;2772;42.700;23.304;2023-01-29T03:17:45;95270.78;;;1.94;100.00
5500;BME280;2772;42.700;23.304;2023-01-29T03:20:16;95266.38;;;2.00;100.00
5500;BME280;2772;42.700;23.304;2023-01-29T03:22:48;95267.34;;;1.94;100.00
5500;BME280;2772;42.700;23.304;2023-01-29T03:25:19;95274.53;;;1.77;100.00
5500;BME280;2772;42.700;23.304;2023-01-29T03:28:05;95276.41;;;1.76;100.00
5500;BME280;2772;42.700;23.304;2023-01-29T03:30:54;95279.28;;;1.80;100.00
5500;BME280;2772;42.700;23.304;2023-01-29T03:33:44;95275.25;;;1.67;100.00
5500;BME280;2772;42.700;23.304;2023-01-29T03:36:16;95276.47;;;1.86;100.00
5500;BME280;2772;42.700;23.304;2023-01-29T03:38:44;95276.16;;;1.78;100.00
5500;BME280;2772;42.700;23.304;2023-01-29T03:41:19;95274.03;;;1.80;100.00
5500;BME280;2772;42.700;23.304;2023-01-29T03:43:54;95266.88;;;1.70;100.00
5500;BME280;2772;42.700;23.304;2023-01-29T03:46:27;95272.72;;;1.77;100.00
5500;BME280;2772;42.700;23.304;2023-01-29T03:48:58;95270.91;;;1.78;100.00
5500;BME280;2772;42.700;23.304;2023-01-29T03:51:29;95277.84;;;1.94;100.00
5500;BME280;2772;42.700;23.304;2023-01-29T03:54:04;95267.34;;;1.89;100.00
5500;BME280;2772;42.700;23.304;2023-01-29T03:56:47;95273.84;;;1.86;100.00
5500;BME280;2772;42.700;23.304;2023-01-29T03:59:29;95279.78;;;1.77;100.00
5500;BME280;2772;42.700;23.304;2023-01-29T04:02:02;95279.53;;;2.05;100.00
5500;BME280;2772;42.700;23.304;2023-01-29T04:04:33;95269.75;;;1.95;100.00
5500;BME280;2772;42.700;23.304;2023-01-29T04:07:04;95274.00;;;1.75;100.00
5500;BME280;2772;42.700;23.304;2023-01-29T04:09:37;95273.84;;;1.86;100.00
5500;BME280;2772;42.700;23.304;2023-01-29T04:12:07;95278.09;;;1.92;100.00
5500;BME280;2772;42.700;23.304;2023-01-29T04:14:35;95282.03;;;1.90;100.00
5500;BME280;2772;42.700;23.304;2023-01-29T04:17:08;95279.84;;;1.82;100.00
5500;BME280;2772;42.700;23.304;2023-01-29T04:19:37;95288.34;;;1.89;100.00
5500;BME280;2772;42.700;23.304;2023-01-29T04:22:12;95281.09;;;2.01;100.00
5500;BME280;2772;42.700;23.304;2023-01-29T04:24:41;95278.09;;;1.92;100.00
5500;BME280;2772;42.700;23.304;2023-01-29T04:27:18;95287.16;;;1.80;100.00
5500;BME280;2772;42.700;23.304;2023-01-29T04:29:59;95296.72;;;1.64;100.00
5500;BME280;2772;42.700;23.304;2023-01-29T04:32:43;95291.63;;;1.52;100.00
5500;BME280;2772;42.700;23.304;2023-01-29T04:35:25;95295.72;;;1.43;100.00
5500;BME280;2772;42.700;23.304;2023-01-29T04:38:01;95296.66;;;1.37;100.00
5500;BME280;2772;42.700;23.304;2023-01-29T04:40:38;95290.66;;;1.37;100.00
5500;BME280;2772;42.700;23.304;2023-01-29T04:43:10;95302.88;;;1.31;100.00
5500;BME280;2772;42.700;23.304;2023-01-29T04:45:44;95297.66;;;1.31;100.00
5500;BME280;2772;42.700;23.304;2023-01-29T04:48:18;95291.25;;;1.44;100.00
5500;BME280;2772;42.700;23.304;2023-01-29T04:50:55;95293.13;;;1.48;100.00
5500;BME280;2772;42.700;23.304;2023-01-29T04:53:29;95300.75;;;1.50;100.00
5500;BME280;2772;42.700;23.304;2023-01-29T04:56:07;95301.06;;;1.53;100.00
5500;BME280;2772;42.700;23.304;2023-01-29T04:58:40;95301.78;;;1.49;100.00
5500;BME280;2772;42.700;23.304;2023-01-29T05:01:12;95297.34;;;1.49;100.00
5500;BME280;2772;42.700;23.304;2023-01-29T05:03:43;95297.88;;;1.51;100.00
5500;BME280;2772;42.700;23.304;2023-01-29T05:06:13;95296.44;;;1.60;100.00
5500;BME280;2772;42.700;23.304;2023-01-29T05:08:41;95303.19;;;1.56;100.00
5500;BME280;2772;42.700;23.304;2023-01-29T05:11:08;95305.31;;;1.59;100.00
5500;BME280;2772;42.700;23.304;2023-01-29T05:13:38;95306.94;;;1.60;100.00
5500;BME280;2772;42.700;23.304;2023-01-29T05:16:08;95315.31;;;1.62;100.00
5500;BME280;2772;42.700;23.304;2023-01-29T05:18:38;95307.59;;;1.73;100.00
5500;BME280;2772;42.700;23.304;2023-01-29T05:21:07;95313.06;;;1.71;100.00
5500;BME280;2772;42.700;23.304;2023-01-29T05:23:34;95308.63;;;1.72;100.00
5500;BME280;2772;42.700;23.304;2023-01-29T05:26:02;95294.72;;;1.49;100.00
5500;BME280;2772;42.700;23.304;2023-01-29T05:28:29;95313.69;;;1.56;100.00
5500;BME280;2772;42.700;23.304;2023-01-29T05:30:55;95314.25;;;1.58;100.00
5500;BME280;2772;42.700;23.304;2023-01-29T05:33:24;95326.88;;;1.61;100.00
5500;BME280;2772;42.700;23.304;2023-01-29T05:35:51;95322.97;;;1.64;100.00
5500;BME280;2772;42.700;23.304;2023-01-29T05:38:20;95313.44;;;1.58;100.00
5500;BME280;2772;42.700;23.304;2023-01-29T05:40:47;95325.59;;;1.64;100.00
5500;BME280;2772;42.700;23.304;2023-01-29T05:43:15;95332.53;;;1.53;100.00
5500;BME280;2772;42.700;23.304;2023-01-29T05:45:42;95330.13;;;1.69;100.00
5500;BME280;2772;42.700;23.304;2023-01-29T05:48:09;95327.69;;;1.62;100.00
5500;BME280;2772;42.700;23.304;2023-01-29T05:50:36;95335.13;;;1.70;100.00
5500;BME280;2772;42.700;23.304;2023-01-29T05:53:02;95339.50;;;1.64;100.00
5500;BME280;2772;42.700;23.304;2023-01-29T05:55:31;95342.50;;;1.73;100.00
5500;BME280;2772;42.700;23.304;2023-01-29T05:57:58;95337.13;;;1.63;100.00
5500;BME280;2772;42.700;23.304;2023-01-29T06:00:25;95342.69;;;1.67;100.00
5500;BME280;2772;42.700;23.304;2023-01-29T06:02:51;95345.72;;;1.80;100.00
5500;BME280;2772;42.700;23.304;2023-01-29T06:05:18;95350.66;;;1.77;100.00
5500;BME280;2772;42.700;23.304;2023-01-29T06:07:45;95350.06;;;1.70;100.00
5500;BME280;2772;42.700;23.304;2023-01-29T06:10:12;95358.25;;;1.73;100.00
5500;BME280;2772;42.700;23.304;2023-01-29T06:12:40;95350.13;;;1.75;100.00
5500;BME280;2772;42.700;23.304;2023-01-29T06:15:09;95358.50;;;1.72;100.00
5500;BME280;2772;42.700;23.304;2023-01-29T06:17:35;95357.75;;;1.76;100.00
5500;BME280;2772;42.700;23.304;2023-01-29T06:20:03;95333.00;;;1.94;100.00
5500;BME280;2772;42.700;23.304;2023-01-29T06:22:31;95359.84;;;1.74;100.00
5500;BME280;2772;42.700;23.304;2023-01-29T06:24:58;95366.63;;;1.70;100.00
5500;BME280;2772;42.700;23.304;2023-01-29T06:27:25;95365.22;;;1.84;100.00
5500;BME280;2772;42.700;23.304;2023-01-29T06:29:53;95369.78;;;1.72;100.00
5500;BME280;2772;42.700;23.304;2023-01-29T06:32:19;95377.03;;;1.87;100.00
5500;BME280;2772;42.700;23.304;2023-01-29T06:34:46;95380.16;;;1.84;100.00
5500;BME280;2772;42.700;23.304;2023-01-29T06:37:13;95382.34;;;1.92;100.00
5500;BME280;2772;42.700;23.304;2023-01-29T06:39:39;95381.72;;;1.85;100.00
5500;BME280;2772;42.700;23.304;2023-01-29T06:42:07;95388.59;;;1.86;100.00
5500;BME280;2772;42.700;23.304;2023-01-29T06:44:34;95386.50;;;1.88;100.00
5500;BME280;2772;42.700;23.304;2023-01-29T06:47:02;95377.78;;;1.82;100.00
5500;BME280;2772;42.700;23.304;2023-01-29T06:49:29;95384.91;;;1.87;100.00
5500;BME280;2772;42.700;23.304;2023-01-29T06:51:56;95387.59;;;1.92;100.00
5500;BME280;2772;42.700;23.304;2023-01-29T06:54:22;95392.84;;;1.92;100.00
5500;BME280;2772;42.700;23.304;2023-01-29T06:56:50;95394.84;;;1.85;100.00
5500;BME280;2772;42.700;23.304;2023-01-29T06:59:17;95392.28;;;1.90;100.00
5500;BME280;2772;42.700;23.304;2023-01-29T07:01:43;95397.97;;;1.82;100.00
5500;BME280;2772;42.700;23.304;2023-01-29T07:04:11;95395.34;;;1.82;100.00
5500;BME280;2772;42.700;23.304;2023-01-29T07:06:38;95395.09;;;1.83;100.00
5500;BME280;2772;42.700;23.304;2023-01-29T07:09:05;95393.22;;;1.79;100.00
5500;BME280;2772;42.700;23.304;2023-01-29T07:11:33;95402.63;;;1.96;100.00
5500;BME280;2772;42.700;23.304;2023-01-29T07:14:02;95409.75;;;2.01;100.00
5500;BME280;2772;42.700;23.304;2023-01-29T07:16:28;95412.31;;;1.96;100.00
5500;BME280;2772;42.700;23.304;2023-01-29T07:18:55;95419.84;;;2.09;100.00
5500;BME280;2772;42.700;23.304;2023-01-29T07:21:23;95415.13;;;2.11;100.00
5500;BME280;2772;42.700;23.304;2023-01-29T07:23:50;95412.31;;;2.17;100.00
5500;BME280;2772;42.700;23.304;2023-01-29T07:26:17;95417.22;;;2.88;100.00
5500;BME280;2772;42.700;23.304;2023-01-29T07:28:43;95401.22;;;3.32;100.00
5500;BME280;2772;42.700;23.304;2023-01-29T07:31:11;95415.16;;;2.95;100.00
5500;BME280;2772;42.700;23.304;2023-01-29T07:33:39;95415.28;;;2.79;100.00
5500;BME280;2772;42.700;23.304;2023-01-29T07:36:06;95420.44;;;2.69;100.00
5500;BME280;2772;42.700;23.304;2023-01-29T07:38:35;95426.00;;;2.46;100.00
5500;BME280;2772;42.700;23.304;2023-01-29T07:41:01;95434.44;;;2.48;100.00
5500;BME280;2772;42.700;23.304;2023-01-29T07:43:28;95428.69;;;2.51;100.00
5500;BME280;2772;42.700;23.304;2023-01-29T07:45:55;95432.84;;;2.47;100.00
5500;BME280;2772;42.700;23.304;2023-01-29T07:48:21;95438.34;;;2.45;100.00
5500;BME280;2772;42.700;23.304;2023-01-29T07:50:53;95436.53;;;2.46;100.00
5500;BME280;2772;42.700;23.304;2023-01-29T07:53:20;95431.13;;;2.31;100.00
5500;BME280;2772;42.700;23.304;2023-01-29T07:55:48;95437.50;;;2.40;100.00
5500;BME280;2772;42.700;23.304;2023-01-29T07:58:16;95432.53;;;2.96;100.00
5500;BME280;2772;42.700;23.304;2023-01-29T08:00:43;95418.00;;;4.24;100.00
5500;BME280;2772;42.700;23.304;2023-01-29T08:03:11;95418.41;;;3.44;100.00
5500;BME280;2772;42.700;23.304;2023-01-29T08:05:38;95425.16;;;2.93;100.00
5500;BME280;2772;42.700;23.304;2023-01-29T08:08:04;95430.66;;;2.92;100.00
5500;BME280;2772;42.700;23.304;2023-01-29T08:10:32;95443.22;;;2.85;100.00
5500;BME280;2772;42.700;23.304;2023-01-29T08:13:00;95442.03;;;2.71;100.00
5500;BME280;2772;42.700;23.304;2023-01-29T08:15:28;95448.34;;;2.70;100.00
5500;BME280;2772;42.700;23.304;2023-01-29T08:17:55;95449.78;;;2.56;100.00
5500;BME280;2772;42.700;23.304;2023-01-29T08:20:22;95461.09;;;2.35;100.00
5500;BME280;2772;42.700;23.304;2023-01-29T08:22:49;95458.72;;;2.33;100.00
5500;BME280;2772;42.700;23.304;2023-01-29T08:25:15;95465.88;;;2.38;100.00
5500;BME280;2772;42.700;23.304;2023-01-29T08:27:42;95462.75;;;2.41;100.00
5500;BME280;2772;42.700;23.304;2023-01-29T08:30:11;95465.44;;;2.46;100.00
5500;BME280;2772;42.700;23.304;2023-01-29T08:32:38;95465.81;;;2.54;100.00
5500;BME280;2772;42.700;23.304;2023-01-29T08:35:05;95479.44;;;2.51;100.00
5500;BME280;2772;42.700;23.304;2023-01-29T08:37:31;95468.19;;;2.56;100.00
5500;BME280;2772;42.700;23.304;2023-01-29T08:39:58;95478.38;;;2.52;100.00
5500;BME280;2772;42.700;23.304;2023-01-29T08:42:25;95481.81;;;2.53;100.00
5500;BME280;2772;42.700;23.304;2023-01-29T08:44:52;95476.09;;;2.61;100.00
5500;BME280;2772;42.700;23.304;2023-01-29T08:47:20;95487.06;;;2.53;100.00
5500;BME280;2772;42.700;23.304;2023-01-29T08:49:47;95486.50;;;2.51;100.00
5500;BME280;2772;42.700;23.304;2023-01-29T08:52:13;95486.94;;;2.43;100.00
5500;BME280;2772;42.700;23.304;2023-01-29T08:54:40;95492.31;;;2.53;100.00
5500;BME280;2772;42.700;23.304;2023-01-29T08:57:07;95497.03;;;2.51;100.00
5500;BME280;2772;42.700;23.304;2023-01-29T08:59:33;95500.50;;;2.56;100.00
5500;BME280;2772;42.700;23.304;2023-01-29T09:02:00;95499.91;;;2.49;100.00
5500;BME280;2772;42.700;23.304;2023-01-29T09:04:28;95493.16;;;2.58;100.00
5500;BME280;2772;42.700;23.304;2023-01-29T09:06:55;95504.53;;;2.64;100.00
5500;BME280;2772;42.700;23.304;2023-01-29T09:09:21;95507.03;;;2.54;100.00
5500;BME280;2772;42.700;23.304;2023-01-29T09:11:48;95501.78;;;2.54;100.00
5500;BME280;2772;42.700;23.304;2023-01-29T09:14:15;95497.75;;;2.68;100.00
5500;BME280;2772;42.700;23.304;2023-01-29T09:16:42;95505.56;;;2.63;100.00
5500;BME280;2772;42.700;23.304;2023-01-29T09:19:09;95499.31;;;2.69;100.00
5500;BME280;2772;42.700;23.304;2023-01-29T09:21:37;95506.19;;;2.70;100.00
5500;BME280;2772;42.700;23.304;2023-01-29T09:24:04;95498.13;;;2.81;100.00
5500;BME280;2772;42.700;23.304;2023-01-29T09:26:31;95498.75;;;2.88;100.00
5500;BME280;2772;42.700;23.304;2023-01-29T09:28:58;95500.13;;;2.96;100.00
5500;BME280;2772;42.700;23.304;2023-01-29T09:31:24;95505.69;;;2.99;100.00
5500;BME280;2772;42.700;23.304;2023-01-29T09:33:51;95496.34;;;2.87;100.00
5500;BME280;2772;42.700;23.304;2023-01-29T09:36:18;95494.66;;;2.76;100.00
5500;BME280;2772;42.700;23.304;2023-01-29T09:38:46;95483.53;;;2.69;100.00
5500;BME280;2772;42.700;23.304;2023-01-29T09:41:23;95491.47;;;2.74;100.00
5500;BME280;2772;42.700;23.304;2023-01-29T09:43:55;95484.09;;;2.71;100.00
5500;BME280;2772;42.700;23.304;2023-01-29T09:46:30;95492.88;;;2.81;100.00
5500;BME280;2772;42.700;23.304;2023-01-29T09:49:02;95485.78;;;2.82;100.00
5500;BME280;2772;42.700;23.304;2023-01-29T09:51:34;95483.53;;;2.69;100.00
5500;BME280;2772;42.700;23.304;2023-01-29T09:54:13;95488.47;;;2.87;100.00
5500;BME280;2772;42.700;23.304;2023-01-29T09:56:42;95481.75;;;3.01;100.00
5500;BME280;2772;42.700;23.304;2023-01-29T09:59:11;95483.25;;;2.92;100.00
5500;BME280;2772;42.700;23.304;2023-01-29T10:01:46;95488.34;;;2.77;100.00
5500;BME280;2772;42.700;23.304;2023-01-29T10:05:07;95483.84;;;2.72;100.00
5500;BME280;2772;42.700;23.304;2023-01-29T10:10:48;95477.66;;;2.83;100.00
5500;BME280;2772;42.700;23.304;2023-01-29T10:13:23;95476.84;;;2.83;100.00
5500;BME280;2772;42.700;23.304;2023-01-29T10:16:14;95469.25;;;2.86;100.00
5500;BME280;2772;42.700;23.304;2023-01-29T10:18:57;95469.31;;;2.91;100.00
5500;BME280;2772;42.700;23.304;2023-01-29T10:21:40;95465.75;;;2.76;100.00
5500;BME280;2772;42.700;23.304;2023-01-29T10:24:20;95466.31;;;2.83;100.00
5500;BME280;2772;42.700;23.304;2023-01-29T10:26:51;95468.50;;;2.91;100.00
5500;BME280;2772;42.700;23.304;2023-01-29T10:29:19;95459.50;;;2.82;100.00
5500;BME280;2772;42.700;23.304;2023-01-29T10:31:50;95461.31;;;2.81;100.00
5500;BME280;2772;42.700;23.304;2023-01-29T10:34:23;95451.41;;;2.88;100.00
5500;BME280;2772;42.700;23.304;2023-01-29T10:36:53;95453.88;;;2.73;100.00
5500;BME280;2772;42.700;23.304;2023-01-29T10:39:21;95451.97;;;2.64;100.00
5500;BME280;2772;42.700;23.304;2023-01-29T10:42:16;95457.13;;;2.54;100.00
5500;BME280;2772;42.700;23.304;2023-01-29T10:44:54;95463.69;;;2.56;100.00
5500;BME280;2772;42.700;23.304;2023-01-29T10:50:18;95460.44;;;2.71;100.00
5500;BME280;2772;42.700;23.304;2023-01-29T10:53:11;95445.53;;;2.55;100.00
5500;BME280;2772;42.700;23.304;2023-01-29T10:55:50;95445.03;;;2.58;100.00
5500;BME280;2772;42.700;23.304;2023-01-29T10:58:28;95447.84;;;2.46;100.00
5500;BME280;2772;42.700;23.304;2023-01-29T11:00:56;95439.28;;;2.61;100.00
5500;BME280;2772;42.700;23.304;2023-01-29T11:03:25;95431.06;;;2.52;100.00
5500;BME280;2772;42.700;23.304;2023-01-29T11:05:57;95442.59;;;2.46;100.00
5500;BME280;2772;42.700;23.304;2023-01-29T11:08:31;95437.13;;;2.53;100.00
5500;BME280;2772;42.700;23.304;2023-01-29T11:11:05;95447.91;;;2.51;100.00
5500;BME280;2772;42.700;23.304;2023-01-29T11:13:39;95442.59;;;2.46;100.00
5500;BME280;2772;42.700;23.304;2023-01-29T11:16:07;95436.53;;;2.46;100.00
5500;BME280;2772;42.700;23.304;2023-01-29T11:18:55;95431.72;;;2.64;100.00
5500;BME280;2772;42.700;23.304;2023-01-29T11:21:24;95420.31;;;2.54;100.00
5500;BME280;2772;42.700;23.304;2023-01-29T11:24:04;95421.50;;;2.68;100.00
5500;BME280;2772;42.700;23.304;2023-01-29T11:26:34;95421.59;;;2.78;100.00
5500;BME280;2772;42.700;23.304;2023-01-29T11:29:04;95422.72;;;2.87;100.00
5500;BME280;2772;42.700;23.304;2023-01-29T11:31:52;95415.78;;;2.76;100.00
5500;BME280;2772;42.700;23.304;2023-01-29T11:34:21;95422.88;;;2.75;100.00
5500;BME280;2772;42.700;23.304;2023-01-29T11:36:56;95412.97;;;2.87;100.00
5500;BME280;2772;42.700;23.304;2023-01-29T11:39:24;95406.84;;;2.77;100.00
5500;BME280;2772;42.700;23.304;2023-01-29T11:41:55;95402.97;;;2.84;100.00
5500;BME280;2772;42.700;23.304;2023-01-29T11:44:34;95394.31;;;2.89;100.00
5500;BME280;2772;42.700;23.304;2023-01-29T11:47:11;95392.25;;;2.91;100.00
5500;BME280;2772;42.700;23.304;2023-01-29T11:49:45;95395.75;;;3.01;100.00
5500;BME280;2772;42.700;23.304;2023-01-29T11:52:14;95389.75;;;3.11;100.00
5500;BME280;2772;42.700;23.304;2023-01-29T11:54:44;95394.00;;;3.17;100.00
5500;BME280;2772;42.700;23.304;2023-01-29T11:57:26;95399.91;;;3.29;100.00
5500;BME280;2772;42.700;23.304;2023-01-29T11:59:57;95390.72;;;3.37;100.00
5500;BME280;2772;42.700;23.304;2023-01-29T12:02:31;95390.66;;;3.26;100.00
5500;BME280;2772;42.700;23.304;2023-01-29T12:05:03;95398.78;;;3.20;100.00
5500;BME280;2772;42.700;23.304;2023-01-29T12:07:31;95379.06;;;3.22;100.00
5500;BME280;2772;42.700;23.304;2023-01-29T12:09:59;95387.25;;;3.31;100.00
5500;BME280;2772;42.700;23.304;2023-01-29T12:12:32;95372.59;;;3.45;100.00
5500;BME280;2772;42.700;23.304;2023-01-29T12:15:15;95387.16;;;3.53;100.00
5500;BME280;2772;42.700;23.304;2023-01-29T12:17:46;95379.50;;;3.56;100.00
5500;BME280;2772;42.700;23.304;2023-01-29T12:20:19;95386.00;;;3.39;100.00
5500;BME280;2772;42.700;23.304;2023-01-29T12:22:52;95393.03;;;3.28;100.00
5500;BME280;2772;42.700;23.304;2023-01-29T12:25:33;95391.47;;;3.27;100.00
5500;BME280;2772;42.700;23.304;2023-01-29T12:28:09;95384.66;;;3.36;100.00
5500;BME280;2772;42.700;23.304;2023-01-29T12:30:49;95382.53;;;3.33;100.00
5500;BME280;2772;42.700;23.304;2023-01-29T12:33:23;95390.78;;;3.42;100.00
5500;BME280;2772;42.700;23.304;2023-01-29T12:35:55;95383.31;;;3.28;100.00
5500;BME280;2772;42.700;23.304;2023-01-29T12:38:26;95388.91;;;3.42;100.00
5500;BME280;2772;42.700;23.304;2023-01-29T12:40:55;95392.03;;;3.34;100.00
5500;BME280;2772;42.700;23.304;2023-01-29T12:43:29;95391.53;;;3.37;100.00
5500;BME280;2772;42.700;23.304;2023-01-29T12:46:00;95390.78;;;3.47;100.00
5500;BME280;2772;42.700;23.304;2023-01-29T12:48:30;95391.03;;;3.40;100.00
5500;BME280;2772;42.700;23.304;2023-01-29T12:51:03;95396.91;;;3.57;100.00
5500;BME280;2772;42.700;23.304;2023-01-29T12:53:34;95396.94;;;3.62;100.00
5500;BME280;2772;42.700;23.304;2023-01-29T12:56:07;95389.78;;;3.58;100.00
5500;BME280;2772;42.700;23.304;2023-01-29T12:58:41;95375.56;;;3.54;100.00
5500;BME280;2772;42.700;23.304;2023-01-29T13:01:14;95393.16;;;3.43;100.00
5500;BME280;2772;42.700;23.304;2023-01-29T13:03:48;95389.28;;;3.61;100.00
5500;BME280;2772;42.700;23.304;2023-01-29T13:06:19;95389.03;;;3.62;100.00
5500;BME280;2772;42.700;23.304;2023-01-29T13:08:50;95393.22;;;3.58;100.00
5500;BME280;2772;42.700;23.304;2023-01-29T13:11:21;95387.41;;;3.56;100.00
5500;BME280;2772;42.700;23.304;2023-01-29T13:13:53;95385.81;;;3.50;100.00
5500;BME280;2772;42.700;23.304;2023-01-29T13:16:28;95377.09;;;3.45;100.00
5500;BME280;2772;42.700;23.304;2023-01-29T13:18:57;95391.59;;;3.47;100.00
5500;BME280;2772;42.700;23.304;2023-01-29T13:21:26;95391.78;;;3.41;100.00
5500;BME280;2772;42.700;23.304;2023-01-29T13:23:56;95391.63;;;3.52;100.00
5500;BME280;2772;42.700;23.304;2023-01-29T13:26:25;95395.31;;;3.51;100.00
5500;BME280;2772;42.700;23.304;2023-01-29T13:28:53;95388.41;;;3.45;100.00
5500;BME280;2772;42.700;23.304;2023-01-29T13:31:27;95393.13;;;3.38;100.00
5500;BME280;2772;42.700;23.304;2023-01-29T13:34:02;95397.81;;;3.36;100.00
5500;BME280;2772;42.700;23.304;2023-01-29T13:36:30;95407.38;;;3.47;100.00
5500;BME280;2772;42.700;23.304;2023-01-29T13:39:01;95411.06;;;3.46;100.00
5500;BME280;2772;42.700;23.304;2023-01-29T13:41:37;95411.88;;;3.52;100.00